sensor_id;sensor_type;location;lat;lon;timestamp;P1;durP1;ratioP1;P2;durP2;ratioP2
57301;SDS011;43149;50.974;18.224;2023-05-07T00:03:01;6.80;;;5.00;;
57301;SDS011;43149;50.974;18.224;2023-05-07T00:12:45;2.90;;;2.30;;
57301;SDS011;43149;50.974;18.224;2023-05-07T00:15:10;5.50;;;4.70;;
57301;SDS011;43149;50.974;18.224;2023-05-07T00:24:55;2.70;;;2.50;;
57301;SDS011;43149;50.974;18.224;2023-05-07T00:34:38;3.70;;;3.50;;
57301;SDS011;43149;50.974;18.224;2023-05-07T00:44:22;16.10;;;2.90;;
57301;SDS011;43149;50.974;18.224;2023-05-07T00:54:07;2.50;;;2.40;;
57301;SDS011;43149;50.974;18.224;2023-05-07T01:03:52;14.00;;;3.40;;
57301;SDS011;43149;50.974;18.224;2023-05-07T01:13:36;5.50;;;3.20;;
57301;SDS011;43149;50.974;18.224;2023-05-07T01:23:22;2.80;;;2.60;;
57301;SDS011;43149;50.974;18.224;2023-05-07T01:33:11;5.50;;;2.50;;
57301;SDS011;43149;50.974;18.224;2023-05-07T01:42:57;2.70;;;2.50;;
57301;SDS011;43149;50.974;18.224;2023-05-07T01:52:42;5.80;;;3.40;;
57301;SDS011;43149;50.974;18.224;2023-05-07T02:02:25;6.30;;;4.10;;
57301;SDS011;43149;50.974;18.224;2023-05-07T02:12:08;3.50;;;3.20;;
57301;SDS011;43149;50.974;18.224;2023-05-07T02:21:52;10.40;;;4.00;;
57301;SDS011;43149;50.974;18.224;2023-05-07T02:31:36;4.60;;;3.60;;
57301;SDS011;43149;50.974;18.224;2023-05-07T02:41:18;3.10;;;2.80;;
57301;SDS011;43149;50.974;18.224;2023-05-07T02:51:04;3.50;;;3.00;;
57301;SDS011;43149;50.974;18.224;2023-05-07T03:00:48;3.20;;;2.90;;
57301;SDS011;43149;50.974;18.224;2023-05-07T03:10:31;4.40;;;1.90;;
57301;SDS011;43149;50.974;18.224;2023-05-07T03:20:15;7.90;;;4.10;;
57301;SDS011;43149;50.974;18.224;2023-05-07T03:30:00;6.80;;;2.30;;
57301;SDS011;43149;50.974;18.224;2023-05-07T03:39:44;6.70;;;2.80;;
57301;SDS011;43149;50.974;18.224;2023-05-07T03:44:36;2.60;;;1.80;;
57301;SDS011;43149;50.974;18.224;2023-05-07T03:54:20;1.50;;;1.40;;
57301;SDS011;43149;50.974;18.224;2023-05-07T04:04:04;2.10;;;1.80;;
57301;SDS011;43149;50.974;18.224;2023-05-07T04:13:49;3.70;;;3.10;;
57301;SDS011;43149;50.974;18.224;2023-05-07T04:23:40;3.50;;;2.80;;
57301;SDS011;43149;50.974;18.224;2023-05-07T04:33:24;3.50;;;3.20;;
57301;SDS011;43149;50.974;18.224;2023-05-07T04:43:07;3.10;;;2.90;;
57301;SDS011;43149;50.974;18.224;2023-05-07T04:52:53;1.60;;;1.50;;
57301;SDS011;43149;50.974;18.224;2023-05-07T05:02:40;5.80;;;2.40;;
57301;SDS011;43149;50.974;18.224;2023-05-07T05:27:04;2.80;;;1.80;;
57301;SDS011;43149;50.974;18.224;2023-05-07T05:36:49;1.80;;;1.70;;
57301;SDS011;43149;50.974;18.224;2023-05-07T05:46:32;1.30;;;1.20;;
57301;SDS011;43149;50.974;18.224;2023-05-07T05:56:18;12.90;;;4.10;;
57301;SDS011;43149;50.974;18.224;2023-05-07T06:06:02;1.10;;;1.00;;
57301;SDS011;43149;50.974;18.224;2023-05-07T06:15:46;6.60;;;3.40;;
57301;SDS011;43149;50.974;18.224;2023-05-07T06:25:30;2.40;;;2.20;;
57301;SDS011;43149;50.974;18.224;2023-05-07T06:35:13;4.10;;;2.40;;
57301;SDS011;43149;50.974;18.224;2023-05-07T06:45:01;4.20;;;3.40;;
57301;SDS011;43149;50.974;18.224;2023-05-07T06:54:47;5.10;;;2.40;;
57301;SDS011;43149;50.974;18.224;2023-05-07T07:04:31;2.10;;;2.00;;
57301;SDS011;43149;50.974;18.224;2023-05-07T07:21:32;3.00;;;2.80;;
57301;SDS011;43149;50.974;18.224;2023-05-07T07:31:16;11.40;;;3.10;;
57301;SDS011;43149;50.974;18.224;2023-05-07T07:41:00;20.20;;;3.90;;
57301;SDS011;43149;50.974;18.224;2023-05-07T07:50:48;6.20;;;4.10;;
57301;SDS011;43149;50.974;18.224;2023-05-07T08:00:33;4.90;;;4.40;;
57301;SDS011;43149;50.974;18.224;2023-05-07T08:10:18;4.40;;;3.50;;
57301;SDS011;43149;50.974;18.224;2023-05-07T08:20:06;12.60;;;7.50;;
57301;SDS011;43149;50.974;18.224;2023-05-07T08:29:52;5.80;;;4.40;;
57301;SDS011;43149;50.974;18.224;2023-05-07T08:39:35;7.50;;;5.30;;
57301;SDS011;43149;50.974;18.224;2023-05-07T08:49:20;2.90;;;2.50;;
57301;SDS011;43149;50.974;18.224;2023-05-07T08:59:05;4.80;;;2.90;;
57301;SDS011;43149;50.974;18.224;2023-05-07T09:08:52;2.50;;;2.30;;
57301;SDS011;43149;50.974;18.224;2023-05-07T09:18:44;3.80;;;3.10;;
57301;SDS011;43149;50.974;18.224;2023-05-07T09:28:43;5.00;;;4.60;;
57301;SDS011;43149;50.974;18.224;2023-05-07T09:38:29;3.00;;;1.60;;
57301;SDS011;43149;50.974;18.224;2023-05-07T09:48:23;2.20;;;2.10;;
57301;SDS011;43149;50.974;18.224;2023-05-07T09:58:09;1.40;;;1.30;;
57301;SDS011;43149;50.974;18.224;2023-05-07T10:15:09;2.20;;;2.10;;
57301;SDS011;43149;50.974;18.224;2023-05-07T10:25:05;6.20;;;3.10;;
57301;SDS011;43149;50.974;18.224;2023-05-07T10:35:00;1.60;;;1.40;;
57301;SDS011;43149;50.974;18.224;2023-05-07T10:44:45;1.20;;;0.70;;
57301;SDS011;43149;50.974;18.224;2023-05-07T10:54:41;7.40;;;3.50;;
57301;SDS011;43149;50.974;18.224;2023-05-07T11:04:44;1.30;;;1.20;;
57301;SDS011;43149;50.974;18.224;2023-05-07T11:15:04;9.10;;;2.90;;
57301;SDS011;43149;50.974;18.224;2023-05-07T11:25:00;4.90;;;2.50;;
57301;SDS011;43149;50.974;18.224;2023-05-07T11:34:59;5.10;;;4.60;;
57301;SDS011;43149;50.974;18.224;2023-05-07T11:44:57;1.70;;;1.60;;
57301;SDS011;43149;50.974;18.224;2023-05-07T11:54:48;9.90;;;2.40;;
57301;SDS011;43149;50.974;18.224;2023-05-07T12:04:33;12.40;;;3.30;;
57301;SDS011;43149;50.974;18.224;2023-05-07T12:14:17;11.40;;;5.80;;
57301;SDS011;43149;50.974;18.224;2023-05-07T12:24:03;3.00;;;2.70;;
57301;SDS011;43149;50.974;18.224;2023-05-07T12:33:48;7.00;;;6.40;;
57301;SDS011;43149;50.974;18.224;2023-05-07T12:43:32;3.30;;;3.00;;
57301;SDS011;43149;50.974;18.224;2023-05-07T12:53:25;6.90;;;2.90;;
57301;SDS011;43149;50.974;18.224;2023-05-07T13:03:11;2.50;;;1.90;;
57301;SDS011;43149;50.974;18.224;2023-05-07T13:12:55;10.00;;;5.10;;
57301;SDS011;43149;50.974;18.224;2023-05-07T13:22:38;14.30;;;9.50;;
57301;SDS011;43149;50.974;18.224;2023-05-07T13:32:22;12.30;;;6.40;;
57301;SDS011;43149;50.974;18.224;2023-05-07T13:42:06;8.60;;;5.20;;
57301;SDS011;43149;50.974;18.224;2023-05-07T13:51:49;13.30;;;6.00;;
57301;SDS011;43149;50.974;18.224;2023-05-07T14:01:32;7.30;;;4.00;;
57301;SDS011;43149;50.974;18.224;2023-05-07T14:11:16;7.80;;;5.80;;
57301;SDS011;43149;50.974;18.224;2023-05-07T14:21:02;14.70;;;7.00;;
57301;SDS011;43149;50.974;18.224;2023-05-07T14:30:48;7.50;;;4.80;;
57301;SDS011;43149;50.974;18.224;2023-05-07T14:40:31;9.10;;;5.80;;
57301;SDS011;43149;50.974;18.224;2023-05-07T14:47:49;6.90;;;6.00;;
57301;SDS011;43149;50.974;18.224;2023-05-07T14:57:32;3.80;;;3.40;;
57301;SDS011;43149;50.974;18.224;2023-05-07T15:07:18;11.40;;;5.50;;
57301;SDS011;43149;50.974;18.224;2023-05-07T15:17:04;8.90;;;5.60;;
57301;SDS011;43149;50.974;18.224;2023-05-07T15:21:59;13.20;;;7.40;;
57301;SDS011;43149;50.974;18.224;2023-05-07T15:31:46;9.80;;;6.80;;
57301;SDS011;43149;50.974;18.224;2023-05-07T15:41:31;9.40;;;5.80;;
57301;SDS011;43149;50.974;18.224;2023-05-07T15:51:19;18.60;;;6.70;;
57301;SDS011;43149;50.974;18.224;2023-05-07T16:01:09;10.10;;;6.10;;
57301;SDS011;43149;50.974;18.224;2023-05-07T16:10:54;3.70;;;3.30;;
57301;SDS011;43149;50.974;18.224;2023-05-07T16:20:40;7.40;;;6.30;;
57301;SDS011;43149;50.974;18.224;2023-05-07T16:30:26;17.20;;;10.70;;
57301;SDS011;43149;50.974;18.224;2023-05-07T16:40:09;30.20;;;11.00;;
57301;SDS011;43149;50.974;18.224;2023-05-07T16:49:54;6.50;;;3.70;;
57301;SDS011;43149;50.974;18.224;2023-05-07T16:59:37;10.40;;;4.50;;
57301;SDS011;43149;50.974;18.224;2023-05-07T17:09:22;15.50;;;8.30;;
57301;SDS011;43149;50.974;18.224;2023-05-07T17:19:05;14.00;;;5.60;;
57301;SDS011;43149;50.974;18.224;2023-05-07T17:28:48;22.60;;;11.30;;
57301;SDS011;43149;50.974;18.224;2023-05-07T17:38:33;28.90;;;10.80;;
57301;SDS011;43149;50.974;18.224;2023-05-07T17:48:16;27.60;;;13.50;;
57301;SDS011;43149;50.974;18.224;2023-05-07T17:58:05;12.40;;;8.10;;
57301;SDS011;43149;50.974;18.224;2023-05-07T18:07:50;9.50;;;7.80;;
57301;SDS011;43149;50.974;18.224;2023-05-07T18:17:34;45.50;;;15.00;;
57301;SDS011;43149;50.974;18.224;2023-05-07T18:27:20;24.30;;;10.00;;
57301;SDS011;43149;50.974;18.224;2023-05-07T18:37:03;55.40;;;20.60;;
57301;SDS011;43149;50.974;18.224;2023-05-07T18:46:48;53.00;;;16.40;;
57301;SDS011;43149;50.974;18.224;2023-05-07T18:56:31;9.10;;;4.50;;
57301;SDS011;43149;50.974;18.224;2023-05-07T19:06:14;11.40;;;5.10;;
57301;SDS011;43149;50.974;18.224;2023-05-07T19:15:57;7.00;;;4.30;;
57301;SDS011;43149;50.974;18.224;2023-05-07T19:25:41;8.30;;;4.00;;
57301;SDS011;43149;50.974;18.224;2023-05-07T19:35:27;8.20;;;3.60;;
57301;SDS011;43149;50.974;18.224;2023-05-07T19:45:13;9.20;;;2.60;;
57301;SDS011;43149;50.974;18.224;2023-05-07T19:54:57;2.60;;;2.40;;
57301;SDS011;43149;50.974;18.224;2023-05-07T20:04:40;6.00;;;1.60;;
57301;SDS011;43149;50.974;18.224;2023-05-07T20:14:23;5.90;;;3.40;;
57301;SDS011;43149;50.974;18.224;2023-05-07T20:24:08;3.30;;;3.00;;
57301;SDS011;43149;50.974;18.224;2023-05-07T20:33:51;8.70;;;3.70;;
57301;SDS011;43149;50.974;18.224;2023-05-07T20:43:36;4.70;;;4.30;;
57301;SDS011;43149;50.974;18.224;2023-05-07T20:53:21;38.60;;;5.10;;
57301;SDS011;43149;50.974;18.224;2023-05-07T21:03:05;7.40;;;5.00;;
57301;SDS011;43149;50.974;18.224;2023-05-07T21:12:49;4.90;;;3.70;;
57301;SDS011;43149;50.974;18.224;2023-05-07T21:22:33;4.20;;;3.80;;
57301;SDS011;43149;50.974;18.224;2023-05-07T21:32:17;4.80;;;4.40;;
57301;SDS011;43149;50.974;18.224;2023-05-07T21:42:02;12.30;;;6.80;;
57301;SDS011;43149;50.974;18.224;2023-05-07T21:51:45;16.20;;;6.70;;
57301;SDS011;43149;50.974;18.224;2023-05-07T21:56:37;18.90;;;12.60;;
57301;SDS011;43149;50.974;18.224;2023-05-07T22:06:20;8.90;;;7.80;;
57301;SDS011;43149;50.974;18.224;2023-05-07T22:16:07;18.30;;;10.30;;
57301;SDS011;43149;50.974;18.224;2023-05-07T22:25:50;10.60;;;6.20;;
57301;SDS011;43149;50.974;18.224;2023-05-07T22:35:32;16.40;;;10.20;;
57301;SDS011;43149;50.974;18.224;2023-05-07T22:45:15;12.70;;;7.90;;
57301;SDS011;43149;50.974;18.224;2023-05-07T22:50:07;20.20;;;15.30;;
57301;SDS011;43149;50.974;18.224;2023-05-07T22:59:54;9.80;;;7.90;;
57301;SDS011;43149;50.974;18.224;2023-05-07T23:09:37;12.70;;;7.90;;
57301;SDS011;43149;50.974;18.224;2023-05-07T23:19:21;12.60;;;9.00;;
57301;SDS011;43149;50.974;18.224;2023-05-07T23:29:05;11.80;;;7.00;;
57301;SDS011;43149;50.974;18.224;2023-05-07T23:38:48;21.60;;;9.00;;
57301;SDS011;43149;50.974;18.224;2023-05-07T23:48:31;12.00;;;9.30;;
57301;SDS011;43149;50.974;18.224;2023-05-07T23:58:14;17.20;;;11.50;;
